createdAt,value
2023-04-05T00:00:17.408Z,80.78
2023-04-05T00:01:17.615Z,80.78
2023-04-05T00:02:17.813Z,80.92
2023-04-05T00:03:19.038Z,81.09
2023-04-05T00:04:18.225Z,80.47
2023-04-05T00:05:19.296Z,80.19
2023-04-05T00:06:18.564Z,80.09
2023-04-05T00:07:18.762Z,80.30
2023-04-05T00:08:18.927Z,80.09
2023-04-05T00:09:19.106Z,80.19
2023-04-05T00:10:19.251Z,80.85
2023-04-05T00:11:19.925Z,80.85
2023-04-05T00:12:20.392Z,80.44
2023-04-05T00:13:19.757Z,80.33
2023-04-05T00:14:19.959Z,80.13
2023-04-05T00:15:20.937Z,80.02
2023-04-05T00:16:21.409Z,80.23
2023-04-05T00:17:20.573Z,80.33
2023-04-05T00:18:20.822Z,80.54
2023-04-05T00:19:20.961Z,80.44
2023-04-05T00:20:21.938Z,80.54
2023-04-05T00:21:21.974Z,80.44
2023-04-05T00:22:21.563Z,80.58
2023-04-05T00:23:21.726Z,81.03
2023-04-05T00:24:21.935Z,81.21
2023-04-05T00:25:22.150Z,81.21
2023-04-05T00:26:22.339Z,80.89
2023-04-05T00:27:23.833Z,81.13
2023-04-05T00:28:22.726Z,81.35
2023-04-05T00:29:24.760Z,81.03
2023-04-05T00:30:23.899Z,81.56
2023-04-05T00:31:23.198Z,81.97
2023-04-05T00:32:23.954Z,82.50
2023-04-05T00:33:23.504Z,82.64
2023-04-05T00:34:25.759Z,83.33
2023-04-05T00:35:23.910Z,83.44
2023-04-05T00:36:24.107Z,83.01
2023-04-05T00:37:24.297Z,83.44
2023-04-05T00:38:24.492Z,83.37
2023-04-05T00:39:24.681Z,83.33
2023-04-05T00:40:25.399Z,83.33
2023-04-05T00:41:25.908Z,83.16
2023-04-05T00:42:26.392Z,83.06
2023-04-05T00:43:25.530Z,83.06
2023-04-05T00:44:25.710Z,83.06
2023-04-05T00:45:26.903Z,83.26
2023-04-05T00:46:26.061Z,83.16
2023-04-05T00:47:26.301Z,83.37
2023-04-05T00:48:26.387Z,83.75
2023-04-05T00:49:26.568Z,83.16
2023-04-05T00:50:26.781Z,83.47
2023-04-05T00:51:26.995Z,84.17
2023-04-05T00:52:27.192Z,83.78
2023-04-05T00:53:27.405Z,83.58
2023-04-05T00:54:27.503Z,83.26
2023-04-05T00:55:27.705Z,83.16
2023-04-05T00:56:27.827Z,83.16
2023-04-05T00:57:28.022Z,83.16
2023-04-05T00:58:28.211Z,83.26
2023-04-05T00:59:28.453Z,82.43
2023-04-05T01:00:30.764Z,81.38
2023-04-05T01:01:28.861Z,80.82
2023-04-05T01:02:29.932Z,78.94
2023-04-05T01:03:29.934Z,78.56
2023-04-05T01:04:29.451Z,77.41
2023-04-05T01:05:29.948Z,76.12
2023-04-05T01:06:29.643Z,75.92
2023-04-05T01:07:29.845Z,74.63
2023-04-05T01:08:30.046Z,74.74
2023-04-05T01:09:30.278Z,74.21
2023-04-05T01:10:31.439Z,74.18
2023-04-05T01:11:32.441Z,73.35
2023-04-05T01:12:30.946Z,73.35
2023-04-05T01:13:31.135Z,73.14
2023-04-05T01:14:31.892Z,73.03
2023-04-05T01:15:31.462Z,74.52
2023-04-05T01:16:32.443Z,74.11
2023-04-05T01:17:32.481Z,74.66
2023-04-05T01:18:32.058Z,74.66
2023-04-05T01:19:32.270Z,74.70
2023-04-05T01:20:33.394Z,75.95
2023-04-05T01:21:32.652Z,76.16
2023-04-05T01:22:33.437Z,77.34
2023-04-05T01:23:33.007Z,77.86
2023-04-05T01:24:33.250Z,77.86
2023-04-05T01:25:33.430Z,77.27
2023-04-05T01:26:33.612Z,77.69
2023-04-05T01:27:33.760Z,77.86
2023-04-05T01:28:33.934Z,78.39
2023-04-05T01:29:34.098Z,79.68
2023-04-05T01:30:34.275Z,79.99
2023-04-05T01:31:35.404Z,80.51
2023-04-05T01:32:34.691Z,81.13
2023-04-05T01:33:34.961Z,81.13
2023-04-05T01:34:35.449Z,81.80
2023-04-05T01:35:35.253Z,82.01
2023-04-05T01:36:35.452Z,81.70
2023-04-05T01:37:35.628Z,81.90
2023-04-05T01:38:35.785Z,82.32
2023-04-05T01:39:35.955Z,81.90
2023-04-05T01:40:36.792Z,82.15
2023-04-05T01:41:36.944Z,82.05
2023-04-05T01:42:36.489Z,81.84
2023-04-05T01:43:36.687Z,81.95
2023-04-05T01:44:36.847Z,81.52
2023-04-05T01:45:37.027Z,81.63
2023-04-05T01:46:37.237Z,81.63
2023-04-05T01:47:37.309Z,81.98
2023-04-05T01:48:37.488Z,81.84
2023-04-05T01:49:37.675Z,81.32
2023-04-05T01:50:39.713Z,81.35
2023-04-05T01:51:38.020Z,81.32
2023-04-05T01:52:38.186Z,81.67
2023-04-05T01:53:38.355Z,81.73
2023-04-05T01:54:38.524Z,81.73
2023-04-05T01:55:39.450Z,81.56
2023-04-05T01:56:38.816Z,81.21
2023-04-05T01:57:39.894Z,81.52
2023-04-05T01:58:40.954Z,81.11
2023-04-05T01:59:39.948Z,81.32
2023-04-05T02:00:39.782Z,81.11
2023-04-05T02:01:39.577Z,81.11
2023-04-05T02:02:39.815Z,81.42
2023-04-05T02:03:40.460Z,81.73
2023-04-05T02:04:40.127Z,82.05
2023-04-05T02:05:40.909Z,81.73
2023-04-05T02:06:41.111Z,81.63
2023-04-05T02:07:41.908Z,81.35
2023-04-05T02:08:41.448Z,81.25
2023-04-05T02:09:41.956Z,81.67
2023-04-05T02:10:41.321Z,82.19
2023-04-05T02:11:41.912Z,82.50
2023-04-05T02:12:41.478Z,82.19
2023-04-05T02:13:42.407Z,82.19
2023-04-05T02:14:42.448Z,81.67
2023-04-05T02:15:41.958Z,82.82
2023-04-05T02:16:42.205Z,83.48
2023-04-05T02:17:42.304Z,83.59
2023-04-05T02:18:43.409Z,83.59
2023-04-05T02:19:42.710Z,83.69
2023-04-05T02:20:44.280Z,84.22
2023-04-05T02:21:43.036Z,84.53
2023-04-05T02:22:43.207Z,83.69
2023-04-05T02:23:43.386Z,84.00
2023-04-05T02:24:44.411Z,84.22
2023-04-05T02:25:43.800Z,84.74
2023-04-05T02:26:44.008Z,84.22
2023-04-05T02:27:44.209Z,84.36
2023-04-05T02:28:44.359Z,83.83
2023-04-05T02:29:44.554Z,84.53
2023-04-05T02:30:44.761Z,84.25
2023-04-05T02:31:45.055Z,84.46
2023-04-05T02:32:45.172Z,85.41
2023-04-05T02:33:45.354Z,85.19
2023-04-05T02:34:45.547Z,84.99
2023-04-05T02:35:47.440Z,84.88
2023-04-05T02:36:45.938Z,85.09
2023-04-05T02:37:46.153Z,85.30
2023-04-05T02:38:46.263Z,85.30
2023-04-05T02:39:48.913Z,84.88
2023-04-05T02:40:46.681Z,84.53
2023-04-05T02:41:46.906Z,84.36
2023-04-05T02:42:47.103Z,84.32
2023-04-05T02:43:47.322Z,84.15
2023-04-05T02:44:47.531Z,83.80
2023-04-05T02:45:47.777Z,83.38
2023-04-05T02:46:47.896Z,83.38
2023-04-05T02:47:48.971Z,83.69
2023-04-05T02:48:48.250Z,83.80
2023-04-05T02:49:48.459Z,82.86
2023-04-05T02:50:49.458Z,82.86
2023-04-05T02:51:49.920Z,83.17
2023-04-05T02:52:49.080Z,83.27
2023-04-05T02:53:49.267Z,83.27
2023-04-05T02:54:49.461Z,83.34
2023-04-05T02:55:49.649Z,82.82
2023-04-05T02:56:49.842Z,82.65
2023-04-05T02:57:51.038Z,82.71
2023-04-05T02:58:50.924Z,82.54
2023-04-05T02:59:50.387Z,82.75
2023-04-05T03:00:50.622Z,82.82
2023-04-05T03:01:52.126Z,82.96
2023-04-05T03:02:52.953Z,82.50
2023-04-05T03:03:51.989Z,82.50
2023-04-05T03:04:51.398Z,82.12
2023-04-05T03:05:52.414Z,82.33
2023-04-05T03:06:52.416Z,81.81
2023-04-05T03:07:51.980Z,81.92
2023-04-05T03:08:52.178Z,82.96
2023-04-05T03:09:52.917Z,83.48
2023-04-05T03:10:53.459Z,83.69
2023-04-05T03:11:52.720Z,83.80
2023-04-05T03:12:52.886Z,83.59
2023-04-05T03:13:53.957Z,82.86
2023-04-05T03:14:53.216Z,82.82
2023-04-05T03:15:53.957Z,82.86
2023-04-05T03:16:54.441Z,82.54
2023-04-05T03:17:54.945Z,82.92
2023-04-05T03:18:54.414Z,82.86
2023-04-05T03:19:54.093Z,83.38
2023-04-05T03:20:54.962Z,83.38
2023-04-05T03:21:55.418Z,83.69
2023-04-05T03:22:54.575Z,83.90
2023-04-05T03:23:54.750Z,84.22
2023-04-05T03:24:55.462Z,84.56
2023-04-05T03:25:55.116Z,84.46
2023-04-05T03:26:55.310Z,84.88
2023-04-05T03:27:55.505Z,84.56
2023-04-05T03:28:55.662Z,84.39
2023-04-05T03:29:56.462Z,85.02
2023-04-05T03:30:58.386Z,85.34
2023-04-05T03:31:56.146Z,85.65
2023-04-05T03:32:56.986Z,85.86
2023-04-05T03:33:57.426Z,85.97
2023-04-05T03:34:56.986Z,86.60
2023-04-05T03:35:56.791Z,86.28
2023-04-05T03:36:57.464Z,86.63
2023-04-05T03:37:57.125Z,86.85
2023-04-05T03:38:57.283Z,85.90
2023-04-05T03:39:57.464Z,86.53
2023-04-05T03:40:58.481Z,86.74
2023-04-05T03:41:57.702Z,86.68
2023-04-05T03:42:57.882Z,87.62
2023-04-05T03:43:58.059Z,87.51
2023-04-05T03:44:58.217Z,88.62
2023-04-05T03:45:58.387Z,88.42
2023-04-05T03:46:58.636Z,88.42
2023-04-05T03:47:58.853Z,88.21
2023-04-05T03:48:59.031Z,88.31
2023-04-05T03:49:59.924Z,88.42
2023-04-05T03:50:59.402Z,88.62
2023-04-05T03:51:59.532Z,88.52
2023-04-05T03:52:59.678Z,88.42
2023-04-05T03:53:59.828Z,87.99
2023-04-05T03:54:59.985Z,87.47
2023-04-05T03:56:00.929Z,87.79
2023-04-05T03:57:00.290Z,87.26
2023-04-05T03:58:00.443Z,87.37
2023-04-05T03:59:00.602Z,87.16
2023-04-05T04:00:00.815Z,87.05
2023-04-05T04:01:00.990Z,87.05
2023-04-05T04:02:01.180Z,87.16
2023-04-05T04:03:01.529Z,86.49
2023-04-05T04:04:01.622Z,86.91
2023-04-05T04:05:03.006Z,86.80
2023-04-05T04:06:02.046Z,86.53
2023-04-05T04:07:02.927Z,86.38
2023-04-05T04:08:02.328Z,86.38
2023-04-05T04:09:04.292Z,85.97
2023-04-05T04:10:02.639Z,85.86
2023-04-05T04:11:02.848Z,86.00
2023-04-05T04:12:03.030Z,86.32
2023-04-05T04:13:03.235Z,86.32
2023-04-05T04:14:03.919Z,86.38
2023-04-05T04:15:04.422Z,87.05
2023-04-05T04:16:03.767Z,86.63
2023-04-05T04:17:04.464Z,86.91
2023-04-05T04:18:04.139Z,86.60
2023-04-05T04:19:04.325Z,87.01
2023-04-05T04:20:04.978Z,86.49
2023-04-05T04:21:04.636Z,86.38
2023-04-05T04:22:04.819Z,86.49
2023-04-05T04:23:04.980Z,86.49
2023-04-05T04:24:05.165Z,86.49
2023-04-05T04:25:05.368Z,86.60
2023-04-05T04:26:05.547Z,86.28
2023-04-05T04:27:06.424Z,86.63
2023-04-05T04:28:05.964Z,86.32
2023-04-05T04:29:06.805Z,86.53
2023-04-05T04:30:06.399Z,86.63
2023-04-05T04:31:06.570Z,86.74
2023-04-05T04:32:06.922Z,86.74
2023-04-05T04:33:09.067Z,87.20
2023-04-05T04:34:08.169Z,87.41
2023-04-05T04:35:07.475Z,86.53
2023-04-05T04:36:07.676Z,87.68
2023-04-05T04:37:07.980Z,87.37
2023-04-05T04:38:07.965Z,87.51
2023-04-05T04:39:08.492Z,87.47
2023-04-05T04:40:08.256Z,87.05
2023-04-05T04:41:08.979Z,87.62
2023-04-05T04:42:08.665Z,87.68
2023-04-05T04:43:09.475Z,87.51
2023-04-05T04:44:08.994Z,87.05
2023-04-05T04:45:09.928Z,87.26
2023-04-05T04:46:09.998Z,87.26
2023-04-05T04:47:10.299Z,87.05
2023-04-05T04:48:10.621Z,87.16
2023-04-05T04:49:10.425Z,87.58
2023-04-05T04:50:09.930Z,87.37
2023-04-05T04:51:10.069Z,87.16
2023-04-05T04:52:10.204Z,87.58
2023-04-05T04:53:10.319Z,87.05
2023-04-05T04:54:11.430Z,87.09
2023-04-05T04:55:12.432Z,87.16
2023-04-05T04:56:10.885Z,87.26
2023-04-05T04:57:11.929Z,87.79
2023-04-05T04:58:11.182Z,86.74
2023-04-05T04:59:11.360Z,86.85
2023-04-05T05:00:11.539Z,86.95
2023-04-05T05:01:12.503Z,86.68
2023-04-05T05:02:12.478Z,87.37
2023-04-05T05:03:12.259Z,87.58
2023-04-05T05:04:12.962Z,87.01
2023-04-05T05:05:12.362Z,86.63
2023-04-05T05:06:12.480Z,86.95
2023-04-05T05:07:12.611Z,87.05
2023-04-05T05:08:12.759Z,86.43
2023-04-05T05:09:12.922Z,86.95
2023-04-05T05:10:13.071Z,86.18
2023-04-05T05:11:13.933Z,86.49
2023-04-05T05:12:13.938Z,85.80
2023-04-05T05:13:13.586Z,86.18
2023-04-05T05:14:13.771Z,85.86
2023-04-05T05:15:14.438Z,86.07
2023-04-05T05:16:14.945Z,85.97
2023-04-05T05:17:14.199Z,85.65
2023-04-05T05:18:14.327Z,85.24
2023-04-05T05:19:15.441Z,85.75
2023-04-05T05:20:14.676Z,85.24
2023-04-05T05:21:15.437Z,85.34
2023-04-05T05:22:14.948Z,85.44
2023-04-05T05:23:15.115Z,85.41
2023-04-05T05:24:15.806Z,85.97
2023-04-05T05:25:15.464Z,85.75
2023-04-05T05:26:15.625Z,85.55
2023-04-05T05:27:16.445Z,86.55
2023-04-05T05:28:16.952Z,86.70
2023-04-05T05:29:16.816Z,86.04
2023-04-05T05:30:16.437Z,86.07
2023-04-05T05:31:16.597Z,86.70
2023-04-05T05:32:18.309Z,86.49
2023-04-05T05:33:17.452Z,86.91
2023-04-05T05:34:17.982Z,87.01
2023-04-05T05:35:18.480Z,86.80
2023-04-05T05:36:17.940Z,86.28
2023-04-05T05:37:17.581Z,86.66
2023-04-05T05:38:17.725Z,86.45
2023-04-05T05:39:17.916Z,85.41
2023-04-05T05:40:18.082Z,85.51
2023-04-05T05:41:18.228Z,85.19
2023-04-05T05:42:19.940Z,85.41
2023-04-05T05:43:19.000Z,85.36
2023-04-05T05:44:19.487Z,84.95
2023-04-05T05:45:18.998Z,85.22
2023-04-05T05:46:21.080Z,84.66
2023-04-05T05:47:21.094Z,83.78
2023-04-05T05:48:21.305Z,83.78
2023-04-05T05:49:19.696Z,83.23
2023-04-05T05:50:19.863Z,82.81
2023-04-05T05:51:20.058Z,81.66
2023-04-05T05:52:21.940Z,81.62
2023-04-05T05:53:20.418Z,81.52
2023-04-05T05:54:20.622Z,81.73
2023-04-05T05:55:20.765Z,80.99
2023-04-05T05:56:20.973Z,80.99
2023-04-05T05:57:21.948Z,80.79
2023-04-05T05:58:21.350Z,80.89
2023-04-05T05:59:21.608Z,81.45
2023-04-05T06:00:21.782Z,82.07
2023-04-05T06:01:22.452Z,81.41
2023-04-05T06:02:22.045Z,81.62
2023-04-05T06:03:22.387Z,81.21
2023-04-05T06:04:22.518Z,80.16
2023-04-05T06:05:23.447Z,81.38
2023-04-05T06:06:23.503Z,80.37
2023-04-05T06:07:22.930Z,79.91
2023-04-05T06:08:23.106Z,79.91
2023-04-05T06:09:23.952Z,80.02
2023-04-05T06:10:23.463Z,79.67
2023-04-05T06:11:23.643Z,79.36
2023-04-05T06:12:23.852Z,79.15
2023-04-05T06:13:24.017Z,79.22
2023-04-05T06:14:24.183Z,79.25
2023-04-05T06:15:24.344Z,79.32
2023-04-05T06:16:24.624Z,79.22
2023-04-05T06:17:25.010Z,79.49
2023-04-05T06:18:25.450Z,79.49
2023-04-05T06:19:25.954Z,79.70
2023-04-05T06:20:25.248Z,79.25
2023-04-05T06:21:25.428Z,77.58
2023-04-05T06:22:25.600Z,77.86
2023-04-05T06:23:25.792Z,76.92
2023-04-05T06:24:25.995Z,76.30
2023-04-05T06:25:26.995Z,75.98
2023-04-05T06:26:26.303Z,76.06
2023-04-05T06:27:26.492Z,76.23
2023-04-05T06:28:26.693Z,77.75
2023-04-05T06:29:26.897Z,76.54
2023-04-05T06:30:28.952Z,74.29
2023-04-05T06:31:27.961Z,71.80
2023-04-05T06:32:27.535Z,68.91
2023-04-05T06:33:28.455Z,67.54
2023-04-05T06:34:27.864Z,64.18
2023-04-05T06:35:28.072Z,62.43
2023-04-05T06:36:28.953Z,61.96
2023-04-05T06:37:28.493Z,62.03
2023-04-05T06:38:28.670Z,61.35
2023-04-05T06:39:28.881Z,60.37
2023-04-05T06:40:30.958Z,59.73
2023-04-05T06:41:29.227Z,58.29
2023-04-05T06:42:31.317Z,58.59
2023-04-05T06:43:30.452Z,58.70
2023-04-05T06:44:29.729Z,58.39
2023-04-05T06:45:29.891Z,57.46
2023-04-05T06:46:30.089Z,57.21
2023-04-05T06:47:30.285Z,56.56
2023-04-05T06:48:30.518Z,56.10
2023-04-05T06:49:30.736Z,55.46
2023-04-05T06:50:31.461Z,54.85
2023-04-05T06:51:31.124Z,54.46
2023-04-05T06:52:31.959Z,54.87
2023-04-05T06:53:31.468Z,55.49
2023-04-05T06:54:32.009Z,56.08
2023-04-05T06:55:32.960Z,58.65
2023-04-05T06:56:31.996Z,60.57
2023-04-05T06:57:32.161Z,62.51
2023-04-05T06:58:32.993Z,62.17
2023-04-05T06:59:33.361Z,60.44
2023-04-05T07:00:32.701Z,60.44
2023-04-05T07:01:33.890Z,58.89
2023-04-05T07:02:35.685Z,58.65
2023-04-05T07:03:33.204Z,58.53
2023-04-05T07:04:34.571Z,57.18
2023-04-05T07:05:33.553Z,56.65
2023-04-05T07:06:34.464Z,56.18
2023-04-05T07:07:33.886Z,56.80
2023-04-05T07:08:34.104Z,56.00
2023-04-05T07:09:34.961Z,57.26
2023-04-05T07:10:34.373Z,56.95
2023-04-05T07:11:34.554Z,57.24
2023-04-05T07:12:34.724Z,56.38
2023-04-05T07:13:34.895Z,55.51
2023-04-05T07:14:35.098Z,55.08
2023-04-05T07:15:35.288Z,54.79
2023-04-05T07:16:36.022Z,53.49
2023-04-05T07:17:35.600Z,52.11
2023-04-05T07:18:35.815Z,51.62
2023-04-05T07:19:36.039Z,50.39
2023-04-05T07:20:36.293Z,50.14
2023-04-05T07:21:36.481Z,49.27
2023-04-05T07:22:36.690Z,49.09
2023-04-05T07:23:37.967Z,49.40
2023-04-05T07:24:37.110Z,48.81
2023-04-05T07:25:38.477Z,49.93
2023-04-05T07:26:37.500Z,49.73
2023-04-05T07:27:37.729Z,49.83
2023-04-05T07:28:37.888Z,49.46
2023-04-05T07:29:38.048Z,47.27
2023-04-05T07:30:38.224Z,47.19
2023-04-05T07:31:38.414Z,47.67
2023-04-05T07:32:39.371Z,47.04
2023-04-05T07:33:39.514Z,46.48
2023-04-05T07:34:40.472Z,46.64
2023-04-05T07:35:39.239Z,44.78
2023-04-05T07:36:40.463Z,46.20
2023-04-05T07:37:39.594Z,45.89
2023-04-05T07:38:39.777Z,45.26
2023-04-05T07:39:40.468Z,44.20
2023-04-05T07:40:40.322Z,43.84
2023-04-05T07:41:41.218Z,42.65
2023-04-05T07:42:40.432Z,43.55
2023-04-05T07:43:40.587Z,44.79
2023-04-05T07:44:42.536Z,44.53
2023-04-05T07:45:43.970Z,46.51
2023-04-05T07:46:41.070Z,47.85
2023-04-05T07:47:41.284Z,51.59
2023-04-05T07:48:41.469Z,50.92
2023-04-05T07:49:41.618Z,52.20
2023-04-05T07:50:42.129Z,53.87
2023-04-05T07:51:42.976Z,54.07
2023-04-05T07:52:42.247Z,53.07
2023-04-05T07:53:42.522Z,55.54
2023-04-05T07:54:42.556Z,54.53
2023-04-05T07:55:42.685Z,54.20
2023-04-05T07:56:42.846Z,54.00
2023-04-05T07:57:43.006Z,54.59
2023-04-05T07:58:43.558Z,54.64
2023-04-05T07:59:43.350Z,53.81
2023-04-05T08:00:43.664Z,52.87
2023-04-05T08:01:43.668Z,53.00
2023-04-05T08:02:43.945Z,52.72
2023-04-05T08:03:44.657Z,49.58
2023-04-05T08:04:46.049Z,49.63
2023-04-05T08:05:44.345Z,47.45
2023-04-05T08:06:44.551Z,46.69
2023-04-05T08:07:44.625Z,46.34
2023-04-05T08:08:45.033Z,43.87
2023-04-05T08:09:44.957Z,45.46
2023-04-05T08:10:45.980Z,46.05
2023-04-05T08:11:45.251Z,43.99
2023-04-05T08:12:45.407Z,42.37
2023-04-05T08:13:46.482Z,43.49
2023-04-05T08:14:45.743Z,41.56
2023-04-05T08:15:46.916Z,42.76
2023-04-05T08:16:47.078Z,42.59
2023-04-05T08:17:46.244Z,42.47
2023-04-05T08:18:46.471Z,42.27
2023-04-05T08:19:46.648Z,43.75
2023-04-05T08:20:46.804Z,46.64
2023-04-05T08:21:46.962Z,43.79
2023-04-05T08:22:48.024Z,44.16
2023-04-05T08:23:47.290Z,43.73
2023-04-05T08:24:48.075Z,42.51
2023-04-05T08:25:47.644Z,42.39
2023-04-05T08:26:47.829Z,43.41
2023-04-05T08:27:48.543Z,44.34
2023-04-05T08:28:48.186Z,43.44
2023-04-05T08:29:48.366Z,44.49
2023-04-05T08:30:48.569Z,43.59
2023-04-05T08:31:49.573Z,43.79
2023-04-05T08:32:50.040Z,44.83
2023-04-05T08:33:49.076Z,42.45
2023-04-05T08:34:51.950Z,41.63
2023-04-05T08:35:49.606Z,42.74
2023-04-05T08:36:50.500Z,42.33
2023-04-05T08:37:49.901Z,42.65
2023-04-05T08:38:50.089Z,43.75
2023-04-05T08:39:50.282Z,44.45
2023-04-05T08:40:50.485Z,46.08
2023-04-05T08:41:51.532Z,43.75
2023-04-05T08:42:50.801Z,46.22
2023-04-05T08:43:51.518Z,46.92
2023-04-05T08:44:51.167Z,45.69
2023-04-05T08:45:51.469Z,43.96
2023-04-05T08:46:52.593Z,43.53
2023-04-05T08:47:52.568Z,44.57
2023-04-05T08:48:52.498Z,44.79
2023-04-05T08:49:52.027Z,44.10
2023-04-05T08:50:52.245Z,43.73
2023-04-05T08:51:53.501Z,44.73
2023-04-05T08:52:52.648Z,44.00
2023-04-05T08:53:52.822Z,43.30
2023-04-05T08:54:52.997Z,44.04
2023-04-05T08:55:53.200Z,46.73
2023-04-05T08:56:53.286Z,44.28
2023-04-05T08:57:53.466Z,45.00
2023-04-05T08:58:56.058Z,47.53
2023-04-05T08:59:53.792Z,43.67
2023-04-05T09:00:54.610Z,44.90
2023-04-05T09:01:54.148Z,46.10
2023-04-05T09:02:54.935Z,45.39
2023-04-05T09:03:54.486Z,45.47
2023-04-05T09:04:54.650Z,45.87
2023-04-05T09:05:54.849Z,44.96
2023-04-05T09:06:55.047Z,43.73
2023-04-05T09:07:55.999Z,45.36
2023-04-05T09:08:56.386Z,44.43
2023-04-05T09:09:55.548Z,43.63
2023-04-05T09:10:55.708Z,43.96
2023-04-05T09:11:55.908Z,43.94
2023-04-05T09:12:56.084Z,45.77
2023-04-05T09:13:56.286Z,42.97
2023-04-05T09:14:56.486Z,44.67
2023-04-05T09:15:56.653Z,46.33
2023-04-05T09:16:56.835Z,46.23
2023-04-05T09:17:57.524Z,46.23
2023-04-05T09:18:58.015Z,46.31
2023-04-05T09:19:57.282Z,46.67
2023-04-05T09:20:57.433Z,47.80
2023-04-05T09:21:57.584Z,47.74
2023-04-05T09:22:57.745Z,47.33
2023-04-05T09:23:58.517Z,47.72
2023-04-05T09:24:58.163Z,45.45
2023-04-05T09:25:58.364Z,46.37
2023-04-05T09:26:58.542Z,44.90
2023-04-05T09:27:58.690Z,47.31
2023-04-05T09:28:58.859Z,46.60
2023-04-05T09:29:59.580Z,46.64
2023-04-05T09:30:59.269Z,47.61
2023-04-05T09:32:00.420Z,46.57
2023-04-05T09:32:59.761Z,47.24
2023-04-05T09:33:59.860Z,46.12
2023-04-05T09:35:00.563Z,46.22
2023-04-05T09:36:00.275Z,46.71
2023-04-05T09:37:01.058Z,46.79
2023-04-05T09:38:00.597Z,46.18
2023-04-05T09:39:01.589Z,44.73
2023-04-05T09:40:01.596Z,44.61
2023-04-05T09:41:01.160Z,44.49
2023-04-05T09:42:01.320Z,44.61
2023-04-05T09:43:01.570Z,44.75
2023-04-05T09:44:01.652Z,45.98
2023-04-05T09:45:02.808Z,44.16
2023-04-05T09:46:02.537Z,45.02
2023-04-05T09:47:02.095Z,44.79
2023-04-05T09:48:02.349Z,44.06
2023-04-05T09:49:02.434Z,45.16
2023-04-05T09:50:02.600Z,44.81
2023-04-05T09:51:11.862Z,43.44
2023-04-05T09:52:05.004Z,43.61
2023-04-05T09:53:04.026Z,42.37
2023-04-05T09:54:03.460Z,43.53
2023-04-05T09:55:04.397Z,45.14
2023-04-05T09:56:03.811Z,42.59
2023-04-05T09:57:03.989Z,43.65
2023-04-05T09:58:04.252Z,43.96
2023-04-05T09:59:04.533Z,42.63
2023-04-05T10:00:05.084Z,42.43
2023-04-05T10:01:16.361Z,41.67
2023-04-05T10:02:07.077Z,44.65
2023-04-05T10:03:06.135Z,44.43
2023-04-05T10:04:05.670Z,44.26
2023-04-05T10:05:07.036Z,45.67
2023-04-05T10:06:05.821Z,46.51
2023-04-05T10:07:06.057Z,44.38
2023-04-05T10:08:06.121Z,44.46
2023-04-05T10:09:06.310Z,46.30
2023-04-05T10:10:06.508Z,46.20
2023-04-05T10:11:08.039Z,48.34
2023-04-05T10:12:06.833Z,45.79
2023-04-05T10:13:06.985Z,45.92
2023-04-05T10:14:07.149Z,44.59
2023-04-05T10:15:08.026Z,46.20
2023-04-05T10:16:08.278Z,44.85
2023-04-05T10:17:09.527Z,44.75
2023-04-05T10:18:07.997Z,45.95
2023-04-05T10:19:09.047Z,46.01
2023-04-05T10:20:09.024Z,44.28
2023-04-05T10:21:08.403Z,43.47
2023-04-05T10:22:08.565Z,41.61
2023-04-05T10:23:09.552Z,43.14
2023-04-05T10:24:09.531Z,41.52
2023-04-05T10:25:09.323Z,42.04
2023-04-05T10:26:11.050Z,42.59
2023-04-05T10:27:09.546Z,43.61
2023-04-05T10:28:09.753Z,44.43
2023-04-05T10:29:11.575Z,46.95
2023-04-05T10:30:10.125Z,44.57
2023-04-05T10:31:10.305Z,44.04
2023-04-05T10:32:12.076Z,42.82
2023-04-05T10:33:11.596Z,44.77
2023-04-05T10:34:11.630Z,42.43
2023-04-05T10:35:11.067Z,43.35
2023-04-05T10:36:12.149Z,42.31
2023-04-05T10:37:11.363Z,41.38
2023-04-05T10:38:11.592Z,40.86
2023-04-05T10:39:11.773Z,43.12
2023-04-05T10:40:11.941Z,43.35
2023-04-05T10:41:12.124Z,42.86
2023-04-05T10:42:12.364Z,42.86
2023-04-05T10:43:12.552Z,44.40
2023-04-05T10:44:24.796Z,46.11
2023-04-05T10:45:14.968Z,44.26
2023-04-05T10:46:13.148Z,43.53
2023-04-05T10:47:13.375Z,43.93
2023-04-05T10:48:15.638Z,44.32
2023-04-05T10:49:14.535Z,42.51
2023-04-05T10:50:13.913Z,41.75
2023-04-05T10:51:14.158Z,43.63
2023-04-05T10:52:15.043Z,44.16
2023-04-05T10:53:15.483Z,44.87
2023-04-05T10:54:14.646Z,45.36
2023-04-05T10:55:17.503Z,42.49
2023-04-05T10:56:14.999Z,43.90
2023-04-05T10:57:16.038Z,44.00
2023-04-05T10:58:15.292Z,43.85
2023-04-05T10:59:15.569Z,43.85
2023-04-05T11:00:15.632Z,43.85
2023-04-05T11:01:15.806Z,43.77
2023-04-05T11:02:16.040Z,45.40
2023-04-05T11:03:18.447Z,44.31
2023-04-05T11:04:17.110Z,45.42
2023-04-05T11:05:16.910Z,44.61
2023-04-05T11:06:16.588Z,44.45
2023-04-05T11:07:16.767Z,44.18
2023-04-05T11:08:16.976Z,46.47
2023-04-05T11:09:17.173Z,44.94
2023-04-05T11:10:17.385Z,44.35
2023-04-05T11:11:18.421Z,45.90
2023-04-05T11:12:17.710Z,45.92
2023-04-05T11:13:18.107Z,44.49
2023-04-05T11:14:18.038Z,44.51
2023-04-05T11:15:19.049Z,46.76
2023-04-05T11:16:18.502Z,48.40
2023-04-05T11:17:19.552Z,47.78
2023-04-05T11:18:18.755Z,47.78
2023-04-05T11:19:20.557Z,48.79
2023-04-05T11:20:19.078Z,45.61
2023-04-05T11:21:19.270Z,46.86
2023-04-05T11:22:19.468Z,47.97
2023-04-05T11:23:21.077Z,47.13
2023-04-05T11:24:20.880Z,47.08
2023-04-05T11:25:21.562Z,47.27
2023-04-05T11:26:20.223Z,45.02
2023-04-05T11:27:22.557Z,47.04
2023-04-05T11:28:20.550Z,44.94
2023-04-05T11:29:20.762Z,44.88
2023-04-05T11:30:20.951Z,46.03
2023-04-05T11:31:21.161Z,46.91
2023-04-05T11:32:21.358Z,47.05
2023-04-05T11:33:21.554Z,47.51
2023-04-05T11:34:23.483Z,49.13
2023-04-05T11:35:22.558Z,47.49
2023-04-05T11:36:22.114Z,49.41
2023-04-05T11:37:23.097Z,48.10
2023-04-05T11:38:24.114Z,49.23
2023-04-05T11:39:22.748Z,48.92
2023-04-05T11:40:22.890Z,49.66
2023-04-05T11:41:44.093Z,49.77
2023-04-05T11:42:23.222Z,49.13
2023-04-05T11:43:23.446Z,49.56
2023-04-05T11:44:23.634Z,49.66
2023-04-05T11:45:23.819Z,50.36
2023-04-05T11:46:25.170Z,48.41
2023-04-05T11:47:24.283Z,49.97
2023-04-05T11:48:24.474Z,50.87
2023-04-05T11:49:24.652Z,50.67
2023-04-05T11:50:24.824Z,49.43
2023-04-05T11:51:25.568Z,49.74
2023-04-05T11:52:25.211Z,48.72
2023-04-05T11:53:28.441Z,49.64
2023-04-05T11:54:26.107Z,49.64
2023-04-05T11:55:25.749Z,49.13
2023-04-05T11:56:25.958Z,49.66
2023-04-05T11:57:26.113Z,47.20
2023-04-05T11:58:26.280Z,47.81
2023-04-05T11:59:26.484Z,47.20
2023-04-05T12:00:26.642Z,48.92
2023-04-05T12:01:27.569Z,49.13
2023-04-05T12:02:27.034Z,49.43
2023-04-05T12:03:27.229Z,49.10
2023-04-05T12:04:27.412Z,48.10
2023-04-05T12:05:27.582Z,47.79
2023-04-05T12:06:28.619Z,48.10
2023-04-05T12:07:27.865Z,48.00
2023-04-05T12:08:28.040Z,47.69
2023-04-05T12:09:29.075Z,48.21
2023-04-05T12:10:28.333Z,46.97
2023-04-05T12:11:28.481Z,47.51
2023-04-05T12:12:28.688Z,48.43
2023-04-05T12:13:30.584Z,48.82
2023-04-05T12:14:29.629Z,47.49
2023-04-05T12:15:30.117Z,47.38
2023-04-05T12:16:29.535Z,46.23
2023-04-05T12:17:29.675Z,47.64
2023-04-05T12:18:29.737Z,47.56
2023-04-05T12:19:29.920Z,48.49
2023-04-05T12:20:31.080Z,47.64
2023-04-05T12:21:30.345Z,48.59
2023-04-05T12:22:31.083Z,48.06
2023-04-05T12:23:32.575Z,47.88
2023-04-05T12:24:32.565Z,46.64
2023-04-05T12:25:32.115Z,46.72
2023-04-05T12:26:31.389Z,47.31
2023-04-05T12:27:31.596Z,47.50
2023-04-05T12:28:31.742Z,46.37
2023-04-05T12:29:32.620Z,45.98
2023-04-05T12:30:32.109Z,47.01
2023-04-05T12:31:32.285Z,46.09
2023-04-05T12:32:32.468Z,49.44
2023-04-05T12:33:32.636Z,47.48
2023-04-05T12:34:32.812Z,47.99
2023-04-05T12:35:34.443Z,46.12
2023-04-05T12:36:34.113Z,46.74
2023-04-05T12:37:33.350Z,46.92
2023-04-05T12:38:33.500Z,46.11
2023-04-05T12:39:35.573Z,44.00
2023-04-05T12:40:33.846Z,44.71
2023-04-05T12:41:34.581Z,46.17
2023-04-05T12:42:34.225Z,46.97
2023-04-05T12:43:36.080Z,46.31
2023-04-05T12:44:35.123Z,47.64
2023-04-05T12:45:35.579Z,46.21
2023-04-05T12:46:35.049Z,46.33
2023-04-05T12:47:36.153Z,44.73
2023-04-05T12:48:35.337Z,45.15
2023-04-05T12:49:36.083Z,45.06
2023-04-05T12:50:37.582Z,45.04
2023-04-05T12:51:35.962Z,45.17
2023-04-05T12:52:36.146Z,44.53
2023-04-05T12:53:36.347Z,45.53
2023-04-05T12:54:37.099Z,48.58